createdAt,value
2022-11-25T00:01:27.924Z,7.20
2022-11-25T00:03:55.799Z,7.10
2022-11-25T00:06:24.731Z,7.00
2022-11-25T00:08:57.624Z,7.10
2022-11-25T00:11:24.279Z,7.10
2022-11-25T00:13:51.503Z,6.90
2022-11-25T00:16:20.382Z,6.80
2022-11-25T00:18:49.042Z,6.70
2022-11-25T00:21:18.066Z,6.70
2022-11-25T00:23:44.724Z,6.80
2022-11-25T00:26:12.313Z,6.80
2022-11-25T00:28:39.677Z,6.80
2022-11-25T00:31:14.041Z,6.80
2022-11-25T00:33:40.967Z,6.80
2022-11-25T00:36:14.818Z,6.90
2022-11-25T00:38:41.380Z,7.10
2022-11-25T00:41:26.419Z,7.10
2022-11-25T00:44:11.806Z,7.10
2022-11-25T00:46:38.534Z,7.20
2022-11-25T00:49:05.187Z,7.20
2022-11-25T00:51:31.815Z,7.20
2022-11-25T00:53:59.270Z,7.20
2022-11-25T00:56:26.332Z,7.20
2022-11-25T00:58:54.013Z,7.20
2022-11-25T01:01:20.671Z,7.20
2022-11-25T01:03:51.132Z,7.20
2022-11-25T01:06:17.940Z,7.30
2022-11-25T01:08:44.585Z,7.30
2022-11-25T01:11:13.027Z,7.30
2022-11-25T01:13:40.045Z,7.30
2022-11-25T01:16:08.694Z,7.30
2022-11-25T01:18:35.355Z,7.30
2022-11-25T01:21:12.956Z,7.30
2022-11-25T01:23:40.332Z,7.40
2022-11-25T01:26:09.794Z,7.40
2022-11-25T01:28:36.573Z,7.50
2022-11-25T01:31:17.925Z,7.40
2022-11-25T01:33:45.380Z,7.50
2022-11-25T01:36:14.707Z,7.60
2022-11-25T01:38:41.474Z,7.60
2022-11-25T01:41:10.053Z,7.70
2022-11-25T01:43:36.884Z,7.70
2022-11-25T01:46:25.909Z,7.70
2022-11-25T01:49:04.075Z,7.80
2022-11-25T01:51:37.667Z,7.90
2022-11-25T01:54:05.987Z,7.90
2022-11-25T01:56:39.498Z,7.90
2022-11-25T01:59:06.618Z,7.90
2022-11-25T02:01:33.890Z,7.90
2022-11-25T02:04:00.722Z,7.90
2022-11-25T02:06:33.010Z,7.90
2022-11-25T02:09:04.905Z,8.00
2022-11-25T02:11:32.426Z,8.10
2022-11-25T02:14:00.110Z,8.10
2022-11-25T02:16:26.895Z,8.10
2022-11-25T02:18:53.540Z,8.20
2022-11-25T02:21:36.697Z,8.20
2022-11-25T02:24:22.150Z,8.20
2022-11-25T02:26:48.823Z,8.30
2022-11-25T02:29:15.678Z,8.30
2022-11-25T02:31:44.075Z,8.30
2022-11-25T02:34:11.135Z,8.30
2022-11-25T02:36:37.846Z,8.30
2022-11-25T02:39:04.854Z,8.30
2022-11-25T02:41:31.380Z,8.40
2022-11-25T02:43:58.147Z,8.40
2022-11-25T02:46:27.323Z,8.40
2022-11-25T02:49:11.407Z,8.30
2022-11-25T02:51:39.867Z,8.30
2022-11-25T02:54:06.721Z,8.30
2022-11-25T02:56:34.670Z,8.30
2022-11-25T02:59:01.919Z,8.20
2022-11-25T03:01:29.853Z,8.20
2022-11-25T03:03:56.993Z,8.10
2022-11-25T03:06:24.017Z,8.20
2022-11-25T03:08:50.660Z,8.20
2022-11-25T03:11:17.336Z,8.30
2022-11-25T03:13:43.931Z,8.30
2022-11-25T03:16:10.567Z,8.30
2022-11-25T03:18:37.228Z,8.30
2022-11-25T03:21:03.941Z,8.20
2022-11-25T03:23:30.909Z,8.20
2022-11-25T03:25:57.512Z,8.20
2022-11-25T03:28:24.387Z,8.20
2022-11-25T03:30:50.960Z,8.20
2022-11-25T03:33:17.644Z,8.10
2022-11-25T03:35:44.181Z,8.10
2022-11-25T03:38:10.850Z,8.10
2022-11-25T03:40:37.520Z,8.20
2022-11-25T03:43:04.147Z,8.10
2022-11-25T03:45:30.749Z,8.20
2022-11-25T03:47:57.467Z,8.20
2022-11-25T03:50:24.108Z,8.20
2022-11-25T03:52:50.872Z,8.10
2022-11-25T03:55:17.531Z,8.10
2022-11-25T03:57:44.181Z,8.10
2022-11-25T04:00:11.823Z,8.10
2022-11-25T04:02:38.544Z,8.10
2022-11-25T04:05:05.574Z,8.20
2022-11-25T04:07:32.486Z,8.10
2022-11-25T04:09:59.209Z,8.20
2022-11-25T04:12:44.477Z,8.10
2022-11-25T04:15:11.297Z,8.20
2022-11-25T04:17:38.084Z,8.10
2022-11-25T04:20:08.263Z,8.10
2022-11-25T04:22:35.085Z,8.10
2022-11-25T04:25:01.837Z,8.10
2022-11-25T04:27:28.443Z,8.10
2022-11-25T04:29:55.099Z,8.10
2022-11-25T04:32:21.928Z,8.10
2022-11-25T04:34:48.605Z,8.10
2022-11-25T04:37:15.178Z,8.00
2022-11-25T04:39:41.744Z,8.00
2022-11-25T04:42:27.023Z,7.90
2022-11-25T04:45:14.411Z,7.90
2022-11-25T04:47:40.563Z,7.90
2022-11-25T04:50:10.305Z,7.80
2022-11-25T04:52:36.927Z,7.70
2022-11-25T04:55:03.701Z,7.60
2022-11-25T04:57:30.314Z,7.60
2022-11-25T04:59:56.987Z,7.50
2022-11-25T05:02:25.195Z,7.50
2022-11-25T05:04:54.202Z,7.50
2022-11-25T05:07:22.285Z,7.50
2022-11-25T05:09:49.018Z,7.50
2022-11-25T05:12:18.736Z,7.50
2022-11-25T05:14:45.633Z,7.40
2022-11-25T05:17:17.642Z,7.40
2022-11-25T05:19:45.917Z,7.40
2022-11-25T05:22:14.642Z,7.40
2022-11-25T05:24:41.228Z,7.40
2022-11-25T05:27:08.261Z,7.40
2022-11-25T05:29:35.008Z,7.40
2022-11-25T05:32:01.730Z,7.40
2022-11-25T05:34:28.317Z,7.40
2022-11-25T05:36:54.948Z,7.40
2022-11-25T05:39:21.862Z,7.40
2022-11-25T05:41:48.605Z,7.30
2022-11-25T05:44:18.475Z,7.30
2022-11-25T05:46:49.173Z,7.40
2022-11-25T05:49:17.205Z,7.40
2022-11-25T05:51:44.397Z,7.40
2022-11-25T05:54:11.175Z,7.40
2022-11-25T05:56:38.336Z,7.30
2022-11-25T05:59:05.297Z,7.40
2022-11-25T06:01:33.083Z,7.40
2022-11-25T06:04:00.865Z,7.40
2022-11-25T06:06:27.534Z,7.40
2022-11-25T06:08:54.239Z,7.40
2022-11-25T06:11:20.847Z,7.50
2022-11-25T06:13:47.482Z,7.40
2022-11-25T06:16:19.686Z,7.40
2022-11-25T06:18:46.736Z,7.40
2022-11-25T06:21:14.031Z,7.40
2022-11-25T06:23:40.876Z,7.40
2022-11-25T06:26:16.246Z,7.40
2022-11-25T06:28:43.044Z,7.40
2022-11-25T06:31:12.917Z,7.50
2022-11-25T06:33:39.722Z,7.40
2022-11-25T06:36:08.146Z,7.40
2022-11-25T06:38:34.798Z,7.40
2022-11-25T06:41:05.526Z,7.40
2022-11-25T06:43:32.828Z,7.40
2022-11-25T06:46:04.587Z,7.40
2022-11-25T06:48:31.528Z,7.30
2022-11-25T06:51:04.764Z,7.40
2022-11-25T06:53:32.098Z,7.40
2022-11-25T06:56:08.886Z,7.40
2022-11-25T06:58:36.719Z,7.40
2022-11-25T07:01:12.084Z,7.40
2022-11-25T07:03:39.002Z,7.50
2022-11-25T07:06:05.822Z,7.50
2022-11-25T07:08:34.116Z,7.50
2022-11-25T07:11:12.864Z,7.40
2022-11-25T07:13:39.472Z,7.40
2022-11-25T07:16:07.316Z,7.40
2022-11-25T07:18:36.003Z,7.40
2022-11-25T07:21:11.258Z,7.40
2022-11-25T07:23:38.366Z,7.30
2022-11-25T07:26:10.702Z,7.30
2022-11-25T07:28:38.136Z,7.30
2022-11-25T07:31:32.871Z,7.20
2022-11-25T07:34:09.365Z,7.20
2022-11-25T07:36:38.178Z,7.10
2022-11-25T07:39:16.891Z,7.10
2022-11-25T07:41:44.766Z,7.10
2022-11-25T07:44:13.865Z,7.00
2022-11-25T07:46:43.114Z,7.00
2022-11-25T07:49:15.678Z,7.10
2022-11-25T07:51:50.626Z,7.10
2022-11-25T07:54:17.604Z,7.00
2022-11-25T07:56:45.300Z,7.10
2022-11-25T07:59:14.959Z,7.10
2022-11-25T08:01:42.238Z,7.00
2022-11-25T08:04:13.821Z,7.10
2022-11-25T08:06:46.380Z,7.20
2022-11-25T08:09:16.303Z,7.20
2022-11-25T08:11:43.096Z,7.30
2022-11-25T08:14:10.285Z,7.30
2022-11-25T08:16:37.138Z,7.40
2022-11-25T08:19:06.192Z,7.50
2022-11-25T08:21:34.324Z,7.60
2022-11-25T08:24:03.126Z,7.70
2022-11-25T08:26:32.845Z,7.80
2022-11-25T08:29:00.255Z,7.80
2022-11-25T08:31:34.673Z,7.90
2022-11-25T08:34:01.727Z,8.10
2022-11-25T08:36:29.350Z,8.00
2022-11-25T08:38:58.194Z,7.90
2022-11-25T08:41:31.029Z,7.80
2022-11-25T08:43:59.122Z,7.80
2022-11-25T08:46:29.406Z,7.80
2022-11-25T08:48:56.498Z,8.00
2022-11-25T08:51:25.855Z,8.20
2022-11-25T08:53:52.598Z,8.50
2022-11-25T08:56:25.677Z,8.80
2022-11-25T08:58:52.777Z,9.00
2022-11-25T09:01:20.806Z,9.30
2022-11-25T09:03:50.298Z,9.50
2022-11-25T09:06:17.859Z,9.70
2022-11-25T09:08:45.039Z,10.00
2022-11-25T09:11:12.415Z,10.20
2022-11-25T09:13:39.578Z,10.40
2022-11-25T09:16:08.300Z,10.50
2022-11-25T09:18:37.368Z,10.70
2022-11-25T09:21:09.752Z,10.60
2022-11-25T09:23:38.607Z,10.60
2022-11-25T09:26:06.833Z,10.90
2022-11-25T09:28:33.659Z,10.90
2022-11-25T09:31:06.159Z,11.20
2022-11-25T09:33:32.937Z,11.20
2022-11-25T09:36:03.218Z,11.20
2022-11-25T09:38:29.860Z,11.60
2022-11-25T09:41:46.508Z,11.60
2022-11-25T09:45:01.071Z,11.80
2022-11-25T09:47:48.186Z,11.80
2022-11-25T09:50:44.736Z,11.80
2022-11-25T09:53:21.329Z,11.90
2022-11-25T09:55:50.286Z,12.00
2022-11-25T09:58:35.066Z,12.10
2022-11-25T10:01:06.523Z,12.70
2022-11-25T10:03:39.638Z,12.80
2022-11-25T10:06:19.122Z,13.00
2022-11-25T10:08:49.067Z,12.90
2022-11-25T10:11:34.487Z,13.40
2022-11-25T10:14:25.873Z,13.80
2022-11-25T10:17:13.636Z,13.50
2022-11-25T10:19:57.150Z,13.80
2022-11-25T10:22:26.681Z,14.10
2022-11-25T10:24:57.845Z,13.30
2022-11-25T10:27:36.505Z,13.70
2022-11-25T10:30:19.896Z,13.90
2022-11-25T10:33:18.426Z,13.50
2022-11-25T10:35:49.624Z,13.50
2022-11-25T10:40:56.315Z,13.80
2022-11-25T10:43:27.214Z,13.80
2022-11-25T10:46:16.249Z,13.80
2022-11-25T10:48:54.789Z,13.70
2022-11-25T10:51:46.253Z,13.70
2022-11-25T10:54:26.871Z,13.90
2022-11-25T10:57:02.284Z,14.20
2022-11-25T10:59:34.353Z,14.60
2022-11-25T11:02:39.833Z,14.20
2022-11-25T11:05:09.457Z,14.20
2022-11-25T11:07:41.241Z,14.30
2022-11-25T11:10:14.403Z,14.60
2022-11-25T11:13:00.882Z,14.30
2022-11-25T11:15:31.468Z,14.10
2022-11-25T11:18:00.234Z,14.40
2022-11-25T11:20:31.606Z,14.90
2022-11-25T11:23:07.027Z,14.80
2022-11-25T11:25:37.362Z,14.20
2022-11-25T11:28:25.117Z,13.80
2022-11-25T11:30:57.196Z,13.40
2022-11-25T11:33:47.160Z,13.10
2022-11-25T11:36:31.098Z,13.00
2022-11-25T11:39:24.400Z,12.80
2022-11-25T11:42:26.888Z,12.40
2022-11-25T11:45:29.164Z,12.10
2022-11-25T11:48:22.635Z,12.00
2022-11-25T11:50:51.510Z,11.90
2022-11-25T11:53:30.835Z,11.90
2022-11-25T11:59:34.041Z,12.60
2022-11-25T12:02:26.389Z,12.60
2022-11-25T12:05:11.094Z,12.80
2022-11-25T12:07:48.760Z,13.00
2022-11-25T12:10:15.309Z,13.50
2022-11-25T12:12:49.041Z,13.70
2022-11-25T12:15:38.464Z,14.10
2022-11-25T12:18:19.977Z,14.10
2022-11-25T12:21:08.659Z,13.70
2022-11-25T12:23:50.400Z,13.40
2022-11-25T12:26:24.682Z,12.90
2022-11-25T12:29:00.439Z,12.70
2022-11-25T12:31:35.996Z,12.60
2022-11-25T12:34:24.231Z,12.60
2022-11-25T12:36:51.036Z,12.60
2022-11-25T12:39:35.684Z,12.60
2022-11-25T12:42:04.815Z,12.60
2022-11-25T12:44:53.494Z,12.60
2022-11-25T12:47:21.660Z,12.70
2022-11-25T12:49:50.253Z,12.80
2022-11-25T12:52:41.148Z,12.80
2022-11-25T12:55:22.124Z,12.90
2022-11-25T12:58:26.352Z,12.90
2022-11-25T13:01:04.118Z,13.00
2022-11-25T13:03:55.334Z,13.00
2022-11-25T13:06:47.331Z,13.20
2022-11-25T13:09:32.746Z,13.50
2022-11-25T13:12:35.007Z,13.70
2022-11-25T13:15:13.540Z,13.80
2022-11-25T13:17:42.477Z,13.80
2022-11-25T13:20:27.403Z,13.60
2022-11-25T13:23:07.708Z,13.30
2022-11-25T13:25:35.159Z,13.00
2022-11-25T13:28:03.901Z,12.90
2022-11-25T13:30:33.258Z,12.70
2022-11-25T13:33:12.073Z,12.60
2022-11-25T13:35:53.636Z,12.70
2022-11-25T13:38:29.319Z,12.90
2022-11-25T13:41:03.639Z,12.90
2022-11-25T13:43:30.593Z,13.00
2022-11-25T13:45:57.299Z,13.10
2022-11-25T13:48:30.569Z,13.70
2022-11-25T13:51:17.457Z,14.10
2022-11-25T13:53:52.157Z,14.20
2022-11-25T13:56:29.001Z,13.90
2022-11-25T13:59:10.966Z,13.80
2022-11-25T14:01:42.122Z,13.40
2022-11-25T14:04:10.738Z,13.20
2022-11-25T14:07:07.246Z,13.10
2022-11-25T14:09:49.169Z,12.80
2022-11-25T14:12:28.311Z,12.70
2022-11-25T14:15:17.429Z,12.60
2022-11-25T14:18:02.844Z,12.60
2022-11-25T14:20:49.230Z,12.50
2022-11-25T14:23:30.870Z,12.50
2022-11-25T14:26:06.087Z,12.40
2022-11-25T14:28:52.249Z,12.30
2022-11-25T14:31:27.367Z,12.30
2022-11-25T14:34:05.360Z,12.20
2022-11-25T14:36:41.977Z,12.20
2022-11-25T14:39:31.578Z,12.30
2022-11-25T14:42:08.442Z,12.20
2022-11-25T14:44:42.106Z,12.30
2022-11-25T14:47:08.737Z,12.50
2022-11-25T14:52:48.912Z,12.80
2022-11-25T14:55:28.971Z,12.50
2022-11-25T14:57:55.656Z,12.30
2022-11-25T15:00:23.120Z,12.20
2022-11-25T15:02:56.684Z,12.10
2022-11-25T15:05:35.249Z,12.00
2022-11-25T15:08:03.714Z,11.90
2022-11-25T15:10:34.908Z,11.80
2022-11-25T15:13:12.681Z,11.80
2022-11-25T15:15:39.504Z,11.70
2022-11-25T15:18:07.048Z,11.70
2022-11-25T15:20:35.286Z,11.60
2022-11-25T15:23:02.582Z,11.50
2022-11-25T15:25:29.309Z,11.50
2022-11-25T15:27:55.993Z,11.30
2022-11-25T15:30:29.295Z,11.30
2022-11-25T15:32:56.502Z,11.10
2022-11-25T15:35:26.146Z,11.00
2022-11-25T15:37:55.631Z,10.90
2022-11-25T15:40:40.708Z,10.80
2022-11-25T15:43:29.618Z,10.70
2022-11-25T15:46:01.506Z,10.70
2022-11-25T15:48:34.093Z,10.60
2022-11-25T15:51:05.242Z,10.70
2022-11-25T15:53:36.821Z,10.70
2022-11-25T15:56:05.890Z,10.70
2022-11-25T15:58:32.724Z,10.60
2022-11-25T16:01:06.929Z,10.60
2022-11-25T16:03:35.241Z,10.60
2022-11-25T16:06:02.435Z,10.60
2022-11-25T16:08:35.122Z,10.70
2022-11-25T16:11:16.109Z,10.70
2022-11-25T16:13:43.115Z,10.80
2022-11-25T16:16:12.755Z,10.80
2022-11-25T16:18:58.069Z,10.80
2022-11-25T16:21:27.045Z,10.80
2022-11-25T16:24:12.884Z,10.80
2022-11-25T16:26:57.754Z,10.90
2022-11-25T16:29:33.246Z,10.90
2022-11-25T16:32:00.928Z,10.90
2022-11-25T16:34:28.003Z,11.00
2022-11-25T16:36:54.651Z,10.90
2022-11-25T16:39:21.185Z,10.90
2022-11-25T16:42:01.467Z,10.90
2022-11-25T16:44:28.738Z,10.80
2022-11-25T16:46:55.567Z,10.80
2022-11-25T16:49:22.614Z,10.80
2022-11-25T16:51:53.426Z,10.80
2022-11-25T16:54:21.201Z,10.70
2022-11-25T16:56:50.723Z,10.70
2022-11-25T16:59:20.690Z,10.60
2022-11-25T17:01:47.598Z,10.70
2022-11-25T17:04:15.322Z,10.60
2022-11-25T17:06:43.082Z,10.60
2022-11-25T17:09:09.695Z,10.60
2022-11-25T17:11:49.036Z,10.60
2022-11-25T17:14:24.015Z,10.60
2022-11-25T17:16:50.992Z,10.50
2022-11-25T17:19:17.687Z,10.50
2022-11-25T17:21:44.501Z,10.50
2022-11-25T17:24:16.048Z,10.50
2022-11-25T17:26:43.507Z,10.50
2022-11-25T17:29:25.765Z,10.50
2022-11-25T17:31:58.204Z,10.30
2022-11-25T17:34:25.301Z,10.00
2022-11-25T17:36:52.166Z,9.70
2022-11-25T17:41:51.367Z,9.40
2022-11-25T17:44:24.978Z,9.30
2022-11-25T17:46:52.887Z,9.30
2022-11-25T17:49:19.744Z,9.20
2022-11-25T17:51:46.677Z,9.20
2022-11-25T17:54:13.836Z,9.20
2022-11-25T17:56:52.082Z,9.30
2022-11-25T17:59:25.808Z,9.30
2022-11-25T18:01:52.695Z,9.30
2022-11-25T18:04:23.084Z,9.40
2022-11-25T18:06:50.034Z,9.50
2022-11-25T18:09:17.142Z,9.50
2022-11-25T18:11:47.556Z,9.50
2022-11-25T18:14:26.540Z,9.50
2022-11-25T18:16:53.994Z,9.60
2022-11-25T18:19:20.861Z,9.60
2022-11-25T18:21:47.468Z,9.60
2022-11-25T18:24:14.143Z,9.70
2022-11-25T18:26:52.936Z,9.70
2022-11-25T18:29:25.917Z,9.70
2022-11-25T18:31:56.588Z,9.80
2022-11-25T18:34:23.398Z,9.70
2022-11-25T18:36:50.919Z,9.80
2022-11-25T18:39:18.924Z,9.80
2022-11-25T18:41:46.604Z,9.80
2022-11-25T18:44:26.139Z,9.80
2022-11-25T18:46:53.147Z,9.80
2022-11-25T18:49:20.217Z,9.80
2022-11-25T18:51:47.212Z,9.80
2022-11-25T18:54:13.884Z,9.80
2022-11-25T18:56:41.418Z,9.80
2022-11-25T18:59:14.105Z,9.80
2022-11-25T19:01:44.175Z,9.80
2022-11-25T19:04:16.398Z,9.70
2022-11-25T19:06:43.743Z,9.70
2022-11-25T19:09:10.917Z,9.70
2022-11-25T19:11:40.721Z,9.60
2022-11-25T19:14:10.504Z,9.60
2022-11-25T19:16:40.600Z,9.70
2022-11-25T19:19:07.375Z,9.70
2022-11-25T19:21:34.732Z,9.80
2022-11-25T19:24:01.381Z,9.70
2022-11-25T19:26:30.614Z,9.70
2022-11-25T19:29:04.338Z,9.70
2022-11-25T19:31:32.568Z,9.70
2022-11-25T19:34:00.330Z,9.70
2022-11-25T19:36:29.370Z,9.70
2022-11-25T19:38:59.321Z,9.70
2022-11-25T19:41:26.107Z,9.70
2022-11-25T19:43:52.724Z,9.70
2022-11-25T19:46:29.966Z,9.60
2022-11-25T19:49:05.167Z,9.70
2022-11-25T19:51:33.670Z,9.70
2022-11-25T19:54:00.443Z,9.60
2022-11-25T19:56:27.206Z,9.60
2022-11-25T19:58:54.478Z,9.60
2022-11-25T20:01:25.503Z,9.50
2022-11-25T20:03:53.755Z,9.50
2022-11-25T20:06:20.898Z,9.50
2022-11-25T20:08:47.681Z,9.50
2022-11-25T20:11:18.591Z,9.50
2022-11-25T20:13:47.090Z,9.40
2022-11-25T20:16:18.117Z,9.40
2022-11-25T20:18:45.552Z,9.30
2022-11-25T20:21:18.829Z,9.30
2022-11-25T20:23:46.203Z,9.30
2022-11-25T20:26:19.045Z,9.30
2022-11-25T20:28:45.965Z,9.30
2022-11-25T20:31:13.760Z,9.20
2022-11-25T20:33:40.546Z,9.20
2022-11-25T20:36:17.706Z,9.00
2022-11-25T20:38:54.684Z,8.90
2022-11-25T20:41:27.530Z,8.90
2022-11-25T20:43:55.502Z,8.80
2022-11-25T20:46:24.481Z,8.80
2022-11-25T20:48:54.112Z,8.70
2022-11-25T20:51:22.008Z,8.70
2022-11-25T20:53:53.895Z,8.70
2022-11-25T20:56:22.152Z,8.70
2022-11-25T20:58:48.842Z,8.70
2022-11-25T21:01:16.870Z,8.50
2022-11-25T21:03:44.994Z,8.40
2022-11-25T21:06:23.537Z,8.50
2022-11-25T21:08:52.413Z,8.50
2022-11-25T21:11:19.892Z,8.40
2022-11-25T21:13:47.243Z,8.50
2022-11-25T21:16:13.947Z,8.50
2022-11-25T21:18:41.332Z,8.40
2022-11-25T21:21:16.471Z,8.40
2022-11-25T21:23:44.263Z,8.30
2022-11-25T21:26:17.839Z,8.20
2022-11-25T21:28:46.419Z,8.10
2022-11-25T21:31:18.257Z,8.10
2022-11-25T21:33:45.774Z,8.10
2022-11-25T21:36:19.901Z,8.10
2022-11-25T21:38:47.900Z,8.00
2022-11-25T21:41:14.778Z,7.90
2022-11-25T21:43:45.790Z,7.80
2022-11-25T21:46:21.374Z,7.80
2022-11-25T21:48:48.527Z,7.80
2022-11-25T21:51:21.608Z,7.70
2022-11-25T21:53:48.823Z,7.70
2022-11-25T21:56:33.944Z,7.70
2022-11-25T21:59:04.291Z,7.60
2022-11-25T22:01:31.258Z,7.60
2022-11-25T22:03:58.236Z,7.60
2022-11-25T22:06:27.339Z,7.50
2022-11-25T22:08:54.726Z,7.50
2022-11-25T22:11:26.574Z,7.40
2022-11-25T22:13:53.242Z,7.30
2022-11-25T22:16:28.083Z,7.30
2022-11-25T22:18:54.846Z,7.20
2022-11-25T22:21:21.499Z,7.30
2022-11-25T22:23:48.133Z,7.40
2022-11-25T22:26:24.140Z,7.40
2022-11-25T22:28:51.970Z,7.40
2022-11-25T22:31:19.808Z,7.30
2022-11-25T22:33:46.871Z,7.30
2022-11-25T22:36:28.419Z,7.30
2022-11-25T22:38:55.120Z,7.30
2022-11-25T22:41:22.100Z,7.30
2022-11-25T22:43:51.122Z,7.20
2022-11-25T22:46:18.471Z,7.20
2022-11-25T22:48:45.224Z,7.10
2022-11-25T22:51:17.786Z,7.10
2022-11-25T22:53:44.492Z,7.00
2022-11-25T22:56:17.146Z,7.00
2022-11-25T22:58:43.777Z,7.10
2022-11-25T23:01:14.886Z,7.10
2022-11-25T23:03:42.183Z,7.10
2022-11-25T23:06:13.214Z,7.10
2022-11-25T23:08:40.385Z,6.90
2022-11-25T23:11:07.250Z,6.90
2022-11-25T23:13:33.925Z,6.80
2022-11-25T23:16:02.236Z,6.80
2022-11-25T23:18:38.867Z,6.80
2022-11-25T23:21:06.693Z,6.70
2022-11-25T23:23:33.344Z,6.70
2022-11-25T23:25:59.917Z,6.60
2022-11-25T23:28:26.655Z,6.60
2022-11-25T23:30:58.234Z,6.50
2022-11-25T23:33:38.304Z,6.50
2022-11-25T23:36:28.579Z,6.30
2022-11-25T23:38:56.875Z,6.20
2022-11-25T23:41:29.207Z,6.20
2022-11-25T23:43:56.314Z,6.10
2022-11-25T23:46:25.182Z,6.10
2022-11-25T23:48:57.687Z,6.10
2022-11-25T23:51:25.301Z,6.10
2022-11-25T23:53:52.195Z,6.20
2022-11-25T23:56:19.322Z,6.30
2022-11-25T23:58:47.394Z,6.20
